createdAt,value
2023-06-10T00:01:14.521Z,16.10
2023-06-10T00:03:44.672Z,16.10
2023-06-10T00:06:12.927Z,16.10
2023-06-10T00:08:41.211Z,16.20
2023-06-10T00:11:09.352Z,16.20
2023-06-10T00:13:39.349Z,16.20
2023-06-10T00:16:07.572Z,16.20
2023-06-10T00:18:38.095Z,16.10
2023-06-10T00:21:06.873Z,16.10
2023-06-10T00:23:38.665Z,16.10
2023-06-10T00:26:07.403Z,16.10
2023-06-10T00:28:35.689Z,16.00
2023-06-10T00:31:06.266Z,16.00
2023-06-10T00:33:34.412Z,16.00
2023-06-10T00:36:02.617Z,16.00
2023-06-10T00:38:30.861Z,16.00
2023-06-10T00:40:58.996Z,15.90
2023-06-10T00:43:27.138Z,15.90
2023-06-10T00:45:55.284Z,15.90
2023-06-10T00:48:24.844Z,15.90
2023-06-10T00:50:53.041Z,15.90
2023-06-10T00:53:21.978Z,16.00
2023-06-10T00:55:50.064Z,16.00
2023-06-10T00:58:18.196Z,16.00
2023-06-10T01:00:47.943Z,16.00
2023-06-10T01:03:18.597Z,16.00
2023-06-10T01:05:50.461Z,16.00
2023-06-10T01:08:22.251Z,16.00
2023-06-10T01:10:52.493Z,16.00
2023-06-10T01:13:21.682Z,16.00
2023-06-10T01:15:49.924Z,16.00
2023-06-10T01:18:18.315Z,16.10
2023-06-10T01:20:51.475Z,16.10
2023-06-10T01:23:21.536Z,16.00
2023-06-10T01:25:52.252Z,16.10
2023-06-10T01:28:22.541Z,16.10
2023-06-10T01:30:54.305Z,16.10
2023-06-10T01:33:26.514Z,16.10
2023-06-10T01:35:54.858Z,16.10
2023-06-10T01:38:24.372Z,16.10
2023-06-10T01:40:52.510Z,16.10
2023-06-10T01:43:20.743Z,16.10
2023-06-10T01:45:48.899Z,16.10
2023-06-10T01:48:17.091Z,16.10
2023-06-10T01:50:45.387Z,16.10
2023-06-10T01:53:13.509Z,16.10
2023-06-10T01:55:43.066Z,16.10
2023-06-10T01:58:11.277Z,16.10
2023-06-10T02:00:39.481Z,16.10
2023-06-10T02:03:07.704Z,16.10
2023-06-10T02:05:35.950Z,16.10
2023-06-10T02:08:04.041Z,16.10
2023-06-10T02:10:32.176Z,16.10
2023-06-10T02:13:01.763Z,16.10
2023-06-10T02:15:29.873Z,16.10
2023-06-10T02:17:59.164Z,16.10
2023-06-10T02:20:27.297Z,16.10
2023-06-10T02:22:55.463Z,16.10
2023-06-10T02:25:23.549Z,16.10
2023-06-10T02:27:51.696Z,16.20
2023-06-10T02:30:21.307Z,16.20
2023-06-10T02:32:49.925Z,16.20
2023-06-10T02:35:18.386Z,16.20
2023-06-10T02:37:46.507Z,16.20
2023-06-10T02:40:14.648Z,16.10
2023-06-10T02:42:42.823Z,16.20
2023-06-10T02:45:11.638Z,16.20
2023-06-10T02:47:41.886Z,16.20
2023-06-10T02:50:10.747Z,16.20
2023-06-10T02:52:38.923Z,16.20
2023-06-10T02:55:08.044Z,16.10
2023-06-10T02:57:36.358Z,16.10
2023-06-10T03:00:10.400Z,16.10
2023-06-10T03:02:39.906Z,16.20
2023-06-10T03:05:11.921Z,16.10
2023-06-10T03:07:40.386Z,16.20
2023-06-10T03:10:09.686Z,16.20
2023-06-10T03:12:37.786Z,16.10
2023-06-10T03:15:07.178Z,16.10
2023-06-10T03:17:35.790Z,16.10
2023-06-10T03:20:04.490Z,16.20
2023-06-10T03:22:33.972Z,16.10
2023-06-10T03:25:02.126Z,16.20
2023-06-10T03:27:30.576Z,16.20
2023-06-10T03:29:58.781Z,16.20
2023-06-10T03:32:27.031Z,16.20
2023-06-10T03:34:58.306Z,16.20
2023-06-10T03:37:26.595Z,16.30
2023-06-10T03:39:56.148Z,16.30
2023-06-10T03:42:24.358Z,16.20
2023-06-10T03:44:52.537Z,16.30
2023-06-10T03:47:20.661Z,16.30
2023-06-10T03:49:48.882Z,16.30
2023-06-10T03:52:17.008Z,16.30
2023-06-10T03:54:45.116Z,16.30
2023-06-10T03:57:14.648Z,16.30
2023-06-10T03:59:42.857Z,16.30
2023-06-10T04:02:11.237Z,16.40
2023-06-10T04:04:39.751Z,16.40
2023-06-10T04:07:09.301Z,16.40
2023-06-10T04:09:37.871Z,16.40
2023-06-10T04:12:07.449Z,16.40
2023-06-10T04:14:37.916Z,16.50
2023-06-10T04:17:08.108Z,16.40
2023-06-10T04:19:36.436Z,16.50
2023-06-10T04:22:05.035Z,16.40
2023-06-10T04:24:33.363Z,16.40
2023-06-10T04:27:01.629Z,16.40
2023-06-10T04:29:29.785Z,16.50
2023-06-10T04:31:59.908Z,16.50
2023-06-10T04:34:28.503Z,16.50
2023-06-10T04:36:56.647Z,16.50
2023-06-10T04:39:25.331Z,16.50
2023-06-10T04:41:53.529Z,16.60
2023-06-10T04:44:22.409Z,16.60
2023-06-10T04:46:50.586Z,16.60
2023-06-10T04:49:20.173Z,16.60
2023-06-10T04:51:48.287Z,16.60
2023-06-10T04:54:17.078Z,16.60
2023-06-10T04:56:45.429Z,16.60
2023-06-10T04:59:15.609Z,16.60
2023-06-10T05:01:43.816Z,16.60
2023-06-10T05:04:12.029Z,16.60
2023-06-10T05:06:41.594Z,16.60
2023-06-10T05:09:09.719Z,16.60
2023-06-10T05:11:37.821Z,16.60
2023-06-10T05:14:06.411Z,16.60
2023-06-10T05:16:34.641Z,16.70
2023-06-10T05:19:03.832Z,16.70
2023-06-10T05:21:33.163Z,16.70
2023-06-10T05:24:03.386Z,16.80
2023-06-10T05:26:32.923Z,16.80
2023-06-10T05:29:01.099Z,16.90
2023-06-10T05:31:29.251Z,16.90
2023-06-10T05:33:57.592Z,16.90
2023-06-10T05:36:26.556Z,16.90
2023-06-10T05:38:54.712Z,16.90
2023-06-10T05:41:24.329Z,16.80
2023-06-10T05:43:52.427Z,16.80
2023-06-10T05:46:20.652Z,16.80
2023-06-10T05:48:48.837Z,16.80
2023-06-10T05:51:16.978Z,16.80
2023-06-10T05:53:47.421Z,16.80
2023-06-10T05:56:15.961Z,16.90
2023-06-10T05:58:45.524Z,16.80
2023-06-10T06:01:13.700Z,16.80
2023-06-10T06:03:42.068Z,16.80
2023-06-10T06:06:10.331Z,16.90
2023-06-10T06:08:38.530Z,16.90
2023-06-10T06:11:06.670Z,16.90
2023-06-10T06:13:34.819Z,16.90
2023-06-10T06:16:04.503Z,17.00
2023-06-10T06:18:32.648Z,17.00
2023-06-10T06:21:00.816Z,17.10
2023-06-10T06:23:28.968Z,17.10
2023-06-10T06:25:57.099Z,17.00
2023-06-10T06:28:30.205Z,17.00
2023-06-10T06:30:58.584Z,17.00
2023-06-10T06:33:28.542Z,17.00
2023-06-10T06:35:56.630Z,16.90
2023-06-10T06:38:24.839Z,16.80
2023-06-10T06:40:53.058Z,16.90
2023-06-10T06:43:21.248Z,16.80
2023-06-10T06:45:49.431Z,16.70
2023-06-10T06:48:17.682Z,16.70
2023-06-10T06:50:47.840Z,16.70
2023-06-10T06:53:16.080Z,16.70
2023-06-10T06:55:44.195Z,16.70
2023-06-10T06:58:12.360Z,16.70
2023-06-10T07:00:40.540Z,16.60
2023-06-10T07:03:08.740Z,16.70
2023-06-10T07:05:37.027Z,16.60
2023-06-10T07:08:06.969Z,16.70
2023-06-10T07:10:35.170Z,16.70
2023-06-10T07:13:04.332Z,16.70
2023-06-10T07:15:33.914Z,16.70
2023-06-10T07:18:02.178Z,16.70
2023-06-10T07:20:30.348Z,16.80
2023-06-10T07:22:58.554Z,16.80
2023-06-10T07:25:28.081Z,16.90
2023-06-10T07:27:56.224Z,17.00
2023-06-10T07:30:24.450Z,17.00
2023-06-10T07:32:53.567Z,17.10
2023-06-10T07:35:22.077Z,17.10
2023-06-10T07:37:50.224Z,17.20
2023-06-10T07:40:18.504Z,17.20
2023-06-10T07:42:48.002Z,17.20
2023-06-10T07:45:16.168Z,17.30
2023-06-10T07:47:45.055Z,17.30
2023-06-10T07:50:13.298Z,17.30
2023-06-10T07:52:41.436Z,17.30
2023-06-10T07:55:10.156Z,17.40
2023-06-10T07:57:39.738Z,17.40
2023-06-10T08:00:11.277Z,17.50
2023-06-10T08:02:39.854Z,17.50
2023-06-10T08:05:09.097Z,17.60
2023-06-10T08:07:37.528Z,17.60
2023-06-10T08:10:06.468Z,17.60
2023-06-10T08:12:34.733Z,17.70
2023-06-10T08:15:02.941Z,17.80
2023-06-10T08:17:32.781Z,17.90
2023-06-10T08:20:01.028Z,17.90
2023-06-10T08:22:30.525Z,18.00
2023-06-10T08:24:58.771Z,18.00
2023-06-10T08:27:27.185Z,18.10
2023-06-10T08:29:55.289Z,18.20
2023-06-10T08:32:23.558Z,18.30
2023-06-10T08:34:53.485Z,18.40
2023-06-10T08:37:21.656Z,18.50
2023-06-10T08:39:49.795Z,18.60
2023-06-10T08:42:21.977Z,18.60
2023-06-10T08:44:50.186Z,18.80
2023-06-10T08:47:19.090Z,18.80
2023-06-10T08:49:48.486Z,18.90
2023-06-10T08:52:18.986Z,19.00
2023-06-10T08:54:56.602Z,19.10
2023-06-10T08:57:24.755Z,19.10
2023-06-10T08:59:52.973Z,19.20
2023-06-10T09:02:21.650Z,19.30
2023-06-10T09:04:50.355Z,19.50
2023-06-10T09:07:19.888Z,19.50
2023-06-10T09:09:48.069Z,19.50
2023-06-10T09:12:16.485Z,19.60
2023-06-10T09:14:44.660Z,19.90
2023-06-10T09:17:12.931Z,20.10
2023-06-10T09:19:41.073Z,20.20
2023-06-10T09:22:09.232Z,20.30
2023-06-10T09:24:38.742Z,20.40
2023-06-10T09:27:07.554Z,20.50
2023-06-10T09:29:50.284Z,20.50
2023-06-10T09:32:19.407Z,20.50
2023-06-10T09:34:48.048Z,20.60
2023-06-10T09:37:16.871Z,20.50
2023-06-10T09:39:46.398Z,20.60
2023-06-10T09:42:19.651Z,20.60
2023-06-10T09:44:52.189Z,20.50
2023-06-10T09:47:23.655Z,20.70
2023-06-10T09:49:54.523Z,20.70
2023-06-10T09:52:25.098Z,20.70
2023-06-10T09:54:55.011Z,20.70
2023-06-10T09:57:23.737Z,20.70
2023-06-10T09:59:55.129Z,20.60
2023-06-10T10:02:23.285Z,20.50
2023-06-10T10:04:51.600Z,20.40
2023-06-10T10:07:19.911Z,20.40
2023-06-10T10:09:48.026Z,20.50
2023-06-10T10:12:18.301Z,20.50
2023-06-10T10:14:48.729Z,20.60
2023-06-10T10:17:17.613Z,20.70
2023-06-10T10:19:49.397Z,20.60
2023-06-10T10:22:20.720Z,20.80
2023-06-10T10:24:51.478Z,20.80
2023-06-10T10:27:24.938Z,20.90
2023-06-10T10:29:54.493Z,20.90
2023-06-10T10:32:23.832Z,20.90
2023-06-10T10:34:54.083Z,21.00
2023-06-10T10:37:22.535Z,21.10
2023-06-10T10:39:50.830Z,21.00
2023-06-10T10:42:19.024Z,21.10
2023-06-10T10:44:48.551Z,21.10
2023-06-10T10:47:16.870Z,21.40
2023-06-10T10:49:45.898Z,21.70
2023-06-10T10:52:14.323Z,21.90
2023-06-10T10:54:46.204Z,22.20
2023-06-10T10:57:16.019Z,22.50
2023-06-10T11:00:06.169Z,22.70
2023-06-10T11:05:09.439Z,22.70
2023-06-10T11:07:38.464Z,22.70
2023-06-10T11:10:09.248Z,22.70
2023-06-10T11:12:53.629Z,22.70
2023-06-10T11:15:24.437Z,23.00
2023-06-10T11:18:23.548Z,23.00
2023-06-10T11:21:02.012Z,22.70
2023-06-10T11:23:43.683Z,22.60
2023-06-10T11:26:33.765Z,22.60
2023-06-10T11:29:10.242Z,22.50
2023-06-10T11:31:43.953Z,22.30
2023-06-10T11:34:12.159Z,22.40
2023-06-10T11:36:43.666Z,22.60
2023-06-10T11:39:12.094Z,22.60
2023-06-10T11:41:41.150Z,23.10
2023-06-10T11:44:12.563Z,23.00
2023-06-10T11:46:43.828Z,23.20
2023-06-10T11:49:12.098Z,23.20
2023-06-10T11:51:41.681Z,23.10
2023-06-10T11:54:11.060Z,23.20
2023-06-10T11:56:39.253Z,23.30
2023-06-10T11:59:08.806Z,23.70
2023-06-10T12:01:41.381Z,23.80
2023-06-10T12:04:13.889Z,23.80
2023-06-10T12:06:43.161Z,24.10
2023-06-10T12:09:25.353Z,24.10
2023-06-10T12:11:57.722Z,24.40
2023-06-10T12:14:56.086Z,24.20
2023-06-10T12:17:25.542Z,24.20
2023-06-10T12:19:55.078Z,24.20
2023-06-10T12:22:24.705Z,24.40
2023-06-10T12:25:03.890Z,24.40
2023-06-10T12:27:32.890Z,24.70
2023-06-10T12:32:40.429Z,24.80
2023-06-10T12:35:11.103Z,24.90
2023-06-10T12:37:42.528Z,24.50
2023-06-10T12:40:12.694Z,24.30
2023-06-10T12:42:42.958Z,24.40
2023-06-10T12:45:13.465Z,24.40
2023-06-10T12:47:42.852Z,24.40
2023-06-10T12:50:14.090Z,24.40
2023-06-10T12:52:43.532Z,24.70
2023-06-10T12:55:12.193Z,25.10
2023-06-10T12:57:49.588Z,25.20
2023-06-10T13:00:19.151Z,25.30
2023-06-10T13:02:47.347Z,25.50
2023-06-10T13:05:17.942Z,25.60
2023-06-10T13:07:46.874Z,25.50
2023-06-10T13:10:15.807Z,25.70
2023-06-10T13:12:48.013Z,25.90
2023-06-10T13:15:17.177Z,26.10
2023-06-10T13:17:45.388Z,26.20
2023-06-10T13:20:13.758Z,26.10
2023-06-10T13:22:43.360Z,25.70
2023-06-10T13:25:12.696Z,25.20
2023-06-10T13:27:41.155Z,24.90
2023-06-10T13:30:10.442Z,25.20
2023-06-10T13:32:38.794Z,25.10
2023-06-10T13:35:08.682Z,25.30
2023-06-10T13:37:38.092Z,25.50
2023-06-10T13:40:10.876Z,25.70
2023-06-10T13:42:39.220Z,25.70
2023-06-10T13:45:09.202Z,25.40
2023-06-10T13:47:37.524Z,25.40
2023-06-10T13:50:06.292Z,25.60
2023-06-10T13:52:34.428Z,25.60
2023-06-10T13:55:02.620Z,25.30
2023-06-10T13:57:32.099Z,25.10
2023-06-10T14:00:00.950Z,24.70
2023-06-10T14:02:29.171Z,24.30
2023-06-10T14:04:57.329Z,24.30
2023-06-10T14:07:27.204Z,24.10
2023-06-10T14:09:55.343Z,23.90
2023-06-10T14:12:23.679Z,23.70
2023-06-10T14:14:53.178Z,23.70
2023-06-10T14:17:21.333Z,23.60
2023-06-10T14:19:49.484Z,23.70
2023-06-10T14:22:17.610Z,23.50
2023-06-10T14:24:45.824Z,23.40
2023-06-10T14:27:13.948Z,23.30
2023-06-10T14:29:42.514Z,23.40
2023-06-10T14:32:12.134Z,22.90
2023-06-10T14:34:40.534Z,22.50
2023-06-10T14:37:09.410Z,21.80
2023-06-10T14:39:37.776Z,21.00
2023-06-10T14:42:06.898Z,20.50
2023-06-10T14:44:35.123Z,20.10
2023-06-10T14:47:03.899Z,20.00
2023-06-10T14:49:33.468Z,19.80
2023-06-10T14:52:01.604Z,19.60
2023-06-10T14:54:29.784Z,19.50
2023-06-10T14:56:57.910Z,19.40
2023-06-10T14:59:26.073Z,19.40
2023-06-10T15:01:54.455Z,19.50
2023-06-10T15:04:24.541Z,19.50
2023-06-10T15:06:54.560Z,19.50
2023-06-10T15:09:22.755Z,19.50
2023-06-10T15:11:50.893Z,19.40
2023-06-10T15:14:19.097Z,19.40
2023-06-10T15:16:47.317Z,19.30
2023-06-10T15:19:15.554Z,19.30
2023-06-10T15:21:43.733Z,19.40
2023-06-10T15:24:13.373Z,19.40
2023-06-10T15:26:42.039Z,19.50
2023-06-10T15:29:10.574Z,19.50
2023-06-10T15:31:38.781Z,19.70
2023-06-10T15:34:08.129Z,19.80
2023-06-10T15:36:37.526Z,19.90
2023-06-10T15:39:07.804Z,19.90
2023-06-10T15:41:37.512Z,20.10
2023-06-10T15:44:06.147Z,20.00
2023-06-10T15:46:35.605Z,20.00
2023-06-10T15:49:03.939Z,20.10
2023-06-10T15:51:32.346Z,20.10
2023-06-10T15:54:00.484Z,20.10
2023-06-10T15:56:28.636Z,20.10
2023-06-10T15:58:58.240Z,20.20
2023-06-10T16:01:26.461Z,20.20
2023-06-10T16:03:54.803Z,20.20
2023-06-10T16:06:23.037Z,20.10
2023-06-10T16:08:51.826Z,20.10
2023-06-10T16:11:19.960Z,20.10
2023-06-10T16:13:48.109Z,20.10
2023-06-10T16:16:17.680Z,20.10
2023-06-10T16:18:46.241Z,20.10
2023-06-10T16:21:14.426Z,20.10
2023-06-10T16:23:42.559Z,20.10
2023-06-10T16:26:10.845Z,20.10
2023-06-10T16:28:39.113Z,20.20
2023-06-10T16:31:07.367Z,20.30
2023-06-10T16:33:37.495Z,20.30
2023-06-10T16:36:05.832Z,20.20
2023-06-10T16:38:33.970Z,20.40
2023-06-10T16:41:02.299Z,20.40
2023-06-10T16:43:30.597Z,20.50
2023-06-10T16:45:58.819Z,20.40
2023-06-10T16:48:26.961Z,20.50
2023-06-10T16:50:56.620Z,20.40
2023-06-10T16:53:24.774Z,20.40
2023-06-10T16:55:52.933Z,20.40
2023-06-10T16:58:21.137Z,20.30
2023-06-10T17:00:50.636Z,20.30
2023-06-10T17:03:18.847Z,20.30
2023-06-10T17:05:47.051Z,20.30
2023-06-10T17:08:16.602Z,20.30
2023-06-10T17:10:45.191Z,20.20
2023-06-10T17:13:13.316Z,20.10
2023-06-10T17:15:41.976Z,20.00
2023-06-10T17:18:10.488Z,20.10
2023-06-10T17:20:38.685Z,20.00
2023-06-10T17:23:08.828Z,20.10
2023-06-10T17:25:38.473Z,20.00
2023-06-10T17:28:06.720Z,19.90
2023-06-10T17:30:34.889Z,19.90
2023-06-10T17:33:03.117Z,19.90
2023-06-10T17:35:31.279Z,19.70
2023-06-10T17:37:59.433Z,19.70
2023-06-10T17:40:27.568Z,19.60
2023-06-10T17:42:57.179Z,19.50
2023-06-10T17:45:25.317Z,19.60
2023-06-10T17:47:53.438Z,19.40
2023-06-10T17:50:21.650Z,19.50
2023-06-10T17:52:49.780Z,19.40
2023-06-10T17:55:18.126Z,19.40
2023-06-10T17:57:46.453Z,19.30
2023-06-10T18:00:16.772Z,19.30
2023-06-10T18:02:45.018Z,19.20
2023-06-10T18:05:13.392Z,19.20
2023-06-10T18:07:43.102Z,19.10
2023-06-10T18:10:11.755Z,19.20
2023-06-10T18:12:39.953Z,19.10
2023-06-10T18:15:09.392Z,19.10
2023-06-10T18:17:39.181Z,19.00
2023-06-10T18:20:08.579Z,19.00
2023-06-10T18:22:36.791Z,18.90
2023-06-10T18:25:06.289Z,18.70
2023-06-10T18:27:34.698Z,18.70
2023-06-10T18:30:02.844Z,18.70
2023-06-10T18:32:31.818Z,18.70
2023-06-10T18:35:01.487Z,18.70
2023-06-10T18:37:29.637Z,18.50
2023-06-10T18:39:57.800Z,18.50
2023-06-10T18:42:26.095Z,18.40
2023-06-10T18:44:54.244Z,18.40
2023-06-10T18:47:22.503Z,18.40
2023-06-10T18:49:50.696Z,18.30
2023-06-10T18:52:20.192Z,18.20
2023-06-10T18:54:48.410Z,18.20
2023-06-10T18:57:16.566Z,18.10
2023-06-10T18:59:45.053Z,18.10
2023-06-10T19:02:13.264Z,18.00
2023-06-10T19:04:41.518Z,18.00
2023-06-10T19:07:09.672Z,17.90
2023-06-10T19:09:39.881Z,17.80
2023-06-10T19:12:09.452Z,17.80
2023-06-10T19:14:40.093Z,17.80
2023-06-10T19:17:09.764Z,17.80
2023-06-10T19:19:37.973Z,17.80
2023-06-10T19:22:06.859Z,17.80
2023-06-10T19:24:34.990Z,17.80
2023-06-10T19:27:04.707Z,17.70
2023-06-10T19:29:32.859Z,17.60
2023-06-10T19:32:01.196Z,17.60
2023-06-10T19:34:29.394Z,17.60
2023-06-10T19:36:57.552Z,17.60
2023-06-10T19:39:25.707Z,17.60
2023-06-10T19:41:53.863Z,17.50
2023-06-10T19:44:23.409Z,17.50
2023-06-10T19:46:51.605Z,17.50
2023-06-10T19:49:19.745Z,17.50
2023-06-10T19:51:50.214Z,17.50
2023-06-10T19:54:18.305Z,17.50
2023-06-10T19:56:46.436Z,17.50
2023-06-10T19:59:14.937Z,17.50
2023-06-10T20:01:44.556Z,17.40
2023-06-10T20:04:12.777Z,17.30
2023-06-10T20:06:42.161Z,17.30
2023-06-10T20:09:10.393Z,17.20
2023-06-10T20:11:38.565Z,17.30
2023-06-10T20:14:06.750Z,17.30
2023-06-10T20:16:34.965Z,17.20
2023-06-10T20:19:04.469Z,17.20
2023-06-10T20:21:32.579Z,17.20
2023-06-10T20:24:00.704Z,17.20
2023-06-10T20:26:28.942Z,17.10
2023-06-10T20:28:57.087Z,17.20
2023-06-10T20:31:27.356Z,17.20
2023-06-10T20:33:55.628Z,17.10
2023-06-10T20:36:25.107Z,17.10
2023-06-10T20:38:53.213Z,17.10
2023-06-10T20:41:22.743Z,17.10
2023-06-10T20:43:50.973Z,17.10
2023-06-10T20:46:19.213Z,17.00
2023-06-10T20:48:47.457Z,17.10
2023-06-10T20:51:15.698Z,17.00
2023-06-10T20:53:45.221Z,16.90
2023-06-10T20:56:13.419Z,17.00
2023-06-10T20:58:41.799Z,16.90
2023-06-10T21:01:10.074Z,16.90
2023-06-10T21:03:38.226Z,16.90
2023-06-10T21:06:07.100Z,16.80
2023-06-10T21:08:35.243Z,16.80
2023-06-10T21:11:04.747Z,16.80
2023-06-10T21:13:32.880Z,16.80
2023-06-10T21:16:01.166Z,16.70
2023-06-10T21:18:31.610Z,16.70
2023-06-10T21:20:59.799Z,16.70
2023-06-10T21:23:28.025Z,16.70
2023-06-10T21:25:56.179Z,16.70
2023-06-10T21:28:25.715Z,16.80
2023-06-10T21:30:53.844Z,16.80
2023-06-10T21:33:23.955Z,16.80
2023-06-10T21:35:52.155Z,16.80
2023-06-10T21:38:20.308Z,16.80
2023-06-10T21:40:48.447Z,16.70
2023-06-10T21:43:16.573Z,16.70
2023-06-10T21:45:46.144Z,16.60
2023-06-10T21:48:14.454Z,16.70
2023-06-10T21:50:42.589Z,16.80
2023-06-10T21:53:10.762Z,16.70
2023-06-10T21:55:38.868Z,16.70
2023-06-10T21:58:06.968Z,16.60
2023-06-10T22:00:35.707Z,16.60
2023-06-10T22:03:05.444Z,16.50
2023-06-10T22:05:34.135Z,16.60
2023-06-10T22:08:02.350Z,16.50
2023-06-10T22:10:30.446Z,16.50
2023-06-10T22:12:58.613Z,16.50
2023-06-10T22:15:26.933Z,16.50
2023-06-10T22:17:55.112Z,16.50
2023-06-10T22:20:24.654Z,16.50
2023-06-10T22:22:52.911Z,16.50
2023-06-10T22:25:21.056Z,16.40
2023-06-10T22:27:49.249Z,16.30
2023-06-10T22:30:17.490Z,16.40
2023-06-10T22:32:45.721Z,16.30
2023-06-10T22:35:14.119Z,16.30
2023-06-10T22:37:43.772Z,16.30
2023-06-10T22:40:12.510Z,16.30
2023-06-10T22:42:40.613Z,16.30
2023-06-10T22:45:09.464Z,16.30
2023-06-10T22:47:37.965Z,16.20
2023-06-10T22:50:06.915Z,16.20
2023-06-10T22:52:35.050Z,16.10
2023-06-10T22:55:05.708Z,16.20
2023-06-10T22:57:33.856Z,16.10
2023-06-10T23:00:01.988Z,16.10
2023-06-10T23:02:30.190Z,16.20
2023-06-10T23:04:58.416Z,16.10
2023-06-10T23:07:26.525Z,16.10
2023-06-10T23:09:54.648Z,16.10
2023-06-10T23:12:24.327Z,16.10
2023-06-10T23:14:52.474Z,16.10
2023-06-10T23:17:21.897Z,16.10
2023-06-10T23:19:51.453Z,16.10
2023-06-10T23:22:20.084Z,16.10
2023-06-10T23:24:48.734Z,16.10
2023-06-10T23:27:21.293Z,16.10
2023-06-10T23:29:59.337Z,16.10
2023-06-10T23:32:28.542Z,16.00
2023-06-10T23:34:56.997Z,16.00
2023-06-10T23:37:25.111Z,16.10
2023-06-10T23:39:55.089Z,16.10
2023-06-10T23:42:25.599Z,16.10
2023-06-10T23:44:55.200Z,16.10
2023-06-10T23:47:23.363Z,16.00
2023-06-10T23:49:51.504Z,16.00
2023-06-10T23:52:21.743Z,16.00
2023-06-10T23:54:50.060Z,16.00
2023-06-10T23:57:18.160Z,16.00
2023-06-10T23:59:46.277Z,16.00
